Time;durP1;ratioP1;P1;durP2;ratioP2;P2;SDS_P1;SDS_P2;PMS_P1;PMS_P2;Temp;Humidity;BMP_temperature;BMP_pressure;BME280_temperature;BME280_humidity;BME280_pressure;Samples;Min_cycle;Max_cycle;Signal;HPM_P1;HPM_P2
2021/11/08 00:00:22;;;;;;;8.93;2.10;;;;;;;;;;5053844;28;20224;-74
2021/11/08 00:02:50;;;;;;;8.10;1.83;;;;;;;;;;5055967;28;20289;-75
2021/11/08 00:05:17;;;;;;;14.70;1.97;;;;;;;;;;5052939;28;20239;-74
2021/11/08 00:07:47;;;;;;;7.67;1.90;;;;;;;;;;5053734;28;20214;-74
2021/11/08 00:10:13;;;;;;;12.50;1.93;;;;;;;;;;5054124;28;20339;-74
2021/11/08 00:12:40;;;;;;;8.90;1.87;;;;;;;;;;5053643;28;20738;-74
2021/11/08 00:15:09;;;;;;;13.47;2.20;;;;;;;;;;5052413;28;20222;-74
2021/11/08 00:17:50;;;;;;;9.27;1.80;;;;;;;;;;5053258;28;20291;-73
2021/11/08 00:20:26;;;;;;;12.00;1.90;;;;;;;;;;5053753;28;20545;-73
2021/11/08 00:22:52;;;;;;;9.77;1.70;;;;;;;;;;5054166;28;20210;-73
2021/11/08 00:25:19;;;;;;;9.97;2.20;;;;;;;;;;5054440;28;20231;-73
2021/11/08 00:27:45;;;;;;;12.27;2.57;;;;;;;;;;5053918;28;20255;-73
2021/11/08 00:30:13;;;;;;;9.63;1.50;;;;;;;;;;5051632;28;20632;-73
2021/11/08 00:32:40;;;;;;;8.67;1.73;;;;;;;;;;5053544;28;20211;-73
2021/11/08 00:35:07;;;;;;;10.07;1.97;;;;;;;;;;5054813;28;20680;-74
2021/11/08 00:37:36;;;;;;;11.00;1.77;;;;;;;;;;5052320;28;20311;-73
2021/11/08 00:40:03;;;;;;;9.73;2.70;;;;;;;;;;5053629;28;20226;-73
2021/11/08 00:42:30;;;;;;;9.57;2.37;;;;;;;;;;5054239;28;20257;-74
2021/11/08 00:44:57;;;;;;;7.90;1.93;;;;;;;;;;5052437;28;20292;-73
2021/11/08 00:47:24;;;;;;;10.57;2.47;;;;;;;;;;5052433;28;20209;-75
2021/11/08 00:49:53;;;;;;;9.70;1.97;;;;;;;;;;5054443;28;20220;-73
2021/11/08 00:52:19;;;;;;;10.20;1.87;;;;;;;;;;5054013;28;20215;-74
2021/11/08 00:54:47;;;;;;;11.70;1.97;;;;;;;;;;5053865;28;20247;-73
2021/11/08 00:57:18;;;;;;;9.83;2.03;;;;;;;;;;5053049;28;20211;-73
2021/11/08 00:59:44;;;;;;;9.70;2.00;;;;;;;;;;5052425;28;20814;-74
2021/11/08 01:02:12;;;;;;;9.43;2.10;;;;;;;;;;5052546;28;20759;-73
2021/11/08 01:04:39;;;;;;;8.30;2.00;;;;;;;;;;5055222;28;20210;-73
2021/11/08 01:07:07;;;;;;;12.73;2.50;;;;;;;;;;5052072;28;20207;-73
2021/11/08 01:09:34;;;;;;;10.20;1.93;;;;;;;;;;5051869;28;20258;-73
2021/11/08 01:12:01;;;;;;;9.80;2.03;;;;;;;;;;5054059;28;20209;-73
2021/11/08 01:14:28;;;;;;;8.63;2.03;;;;;;;;;;5052186;28;20234;-73
2021/11/08 01:16:56;;;;;;;9.63;2.53;;;;;;;;;;5056337;28;20207;-74
2021/11/08 01:19:25;;;;;;;11.13;1.97;;;;;;;;;;5060608;28;20302;-73
2021/11/08 01:21:52;;;;;;;15.77;3.13;;;;;;;;;;5060857;28;20672;-74
2021/11/08 01:24:20;;;;;;;12.07;2.57;;;;;;;;;;5057897;28;20223;-73
2021/11/08 01:26:48;;;;;;;9.33;1.70;;;;;;;;;;5060240;28;20577;-73
2021/11/08 01:29:16;;;;;;;9.13;2.13;;;;;;;;;;5058880;28;20325;-74
2021/11/08 01:31:42;;;;;;;7.83;1.80;;;;;;;;;;5058254;28;21184;-74
2021/11/08 01:34:09;;;;;;;6.07;1.80;;;;;;;;;;5058089;28;20234;-74
2021/11/08 01:36:37;;;;;;;10.83;2.10;;;;;;;;;;5059934;28;20609;-73
2021/11/08 01:39:13;;;;;;;7.17;1.43;;;;;;;;;;5058140;28;20232;-73
2021/11/08 01:41:39;;;;;;;7.40;1.83;;;;;;;;;;5058832;28;20219;-73
2021/11/08 01:44:06;;;;;;;8.20;1.93;;;;;;;;;;5060139;28;20248;-73
2021/11/08 01:46:34;;;;;;;6.87;1.90;;;;;;;;;;5059246;28;20212;-73
2021/11/08 01:49:00;;;;;;;8.33;2.00;;;;;;;;;;5060663;28;20779;-73
2021/11/08 01:51:27;;;;;;;11.37;2.40;;;;;;;;;;5060473;28;20310;-73
2021/11/08 01:53:55;;;;;;;7.47;1.80;;;;;;;;;;5059144;28;20672;-73
2021/11/08 01:56:23;;;;;;;7.90;1.93;;;;;;;;;;5061103;28;20238;-73
2021/11/08 01:58:49;;;;;;;8.00;2.53;;;;;;;;;;5059712;28;20293;-73
2021/11/08 02:01:16;;;;;;;6.67;2.07;;;;;;;;;;5057207;28;20237;-73
2021/11/08 02:03:44;;;;;;;11.70;1.80;;;;;;;;;;5060575;28;20258;-73
2021/11/08 02:06:12;;;;;;;11.17;1.70;;;;;;;;;;5060215;28;20229;-73
2021/11/08 02:08:38;;;;;;;9.83;1.93;;;;;;;;;;5058461;28;20293;-73
2021/11/08 02:11:06;;;;;;;6.43;1.53;;;;;;;;;;5058111;28;20215;-73
2021/11/08 02:13:33;;;;;;;8.80;1.90;;;;;;;;;;5059622;28;20234;-74
2021/11/08 02:16:00;;;;;;;11.87;2.07;;;;;;;;;;5058336;28;20868;-73
2021/11/08 02:18:26;;;;;;;9.10;1.97;;;;;;;;;;5058388;28;20909;-73
2021/11/08 02:20:55;;;;;;;9.57;2.00;;;;;;;;;;5060422;28;20195;-73
2021/11/08 02:23:23;;;;;;;7.57;1.73;;;;;;;;;;5059082;28;20227;-72
2021/11/08 02:25:54;;;;;;;10.43;2.10;;;;;;;;;;5057807;28;20604;-73
2021/11/08 02:28:21;;;;;;;14.10;2.40;;;;;;;;;;5056211;28;20663;-73
2021/11/08 02:30:52;;;;;;;10.07;2.00;;;;;;;;;;5056354;28;20737;-72
2021/11/08 02:33:19;;;;;;;11.03;2.10;;;;;;;;;;5055226;28;20214;-72
2021/11/08 02:35:46;;;;;;;14.67;2.80;;;;;;;;;;5055382;28;20213;-72
2021/11/08 02:38:18;;;;;;;8.53;2.10;;;;;;;;;;5056682;28;20215;-72
2021/11/08 02:40:45;;;;;;;10.10;1.77;;;;;;;;;;5054895;28;20216;-72
2021/11/08 02:43:19;;;;;;;12.50;2.10;;;;;;;;;;5057050;28;20230;-72
2021/11/08 02:45:47;;;;;;;11.93;2.73;;;;;;;;;;5058071;28;20217;-72
2021/11/08 02:48:14;;;;;;;8.47;2.10;;;;;;;;;;5055094;28;20215;-74
2021/11/08 02:50:40;;;;;;;6.97;1.77;;;;;;;;;;5056656;28;20214;-72
2021/11/08 02:53:11;;;;;;;9.63;2.33;;;;;;;;;;5055731;28;20217;-72
2021/11/08 02:55:40;;;;;;;10.57;2.33;;;;;;;;;;5056218;28;20285;-72
2021/11/08 02:58:07;;;;;;;10.93;2.20;;;;;;;;;;5054014;28;20250;-72
2021/11/08 03:00:33;;;;;;;11.67;2.23;;;;;;;;;;5054866;28;20683;-72
2021/11/08 03:03:00;;;;;;;10.37;1.93;;;;;;;;;;5053714;28;20255;-72
2021/11/08 03:05:32;;;;;;;10.07;2.27;;;;;;;;;;5053323;28;20313;-72
2021/11/08 03:07:59;;;;;;;6.67;1.60;;;;;;;;;;5053921;28;20201;-72
2021/11/08 03:10:29;;;;;;;13.33;2.60;;;;;;;;;;5054958;28;20250;-72
2021/11/08 03:12:59;;;;;;;10.30;2.17;;;;;;;;;;5055127;28;20225;-72
2021/11/08 03:15:39;;;;;;;10.17;2.43;;;;;;;;;;5055033;28;20227;-72
2021/11/08 03:18:08;;;;;;;16.30;2.50;;;;;;;;;;5055304;28;20207;-72
2021/11/08 03:20:36;;;;;;;8.73;2.23;;;;;;;;;;5054314;28;20272;-74
2021/11/08 03:23:06;;;;;;;12.13;2.53;;;;;;;;;;5054495;28;20864;-72
2021/11/08 03:25:45;;;;;;;6.43;1.80;;;;;;;;;;5055656;28;20240;-72
2021/11/08 03:28:13;;;;;;;11.20;2.67;;;;;;;;;;5052332;28;20218;-72
2021/11/08 03:30:44;;;;;;;10.87;2.37;;;;;;;;;;5053619;28;20326;-72
2021/11/08 03:33:13;;;;;;;9.23;2.43;;;;;;;;;;5055296;28;20452;-72
2021/11/08 03:35:41;;;;;;;12.90;3.23;;;;;;;;;;5055155;28;20231;-72
2021/11/08 03:38:10;;;;;;;14.57;2.93;;;;;;;;;;5054026;28;20217;-72
2021/11/08 03:40:39;;;;;;;10.83;2.37;;;;;;;;;;5052909;28;20210;-73
2021/11/08 03:43:07;;;;;;;12.47;3.10;;;;;;;;;;5054192;28;20268;-72
2021/11/08 03:45:36;;;;;;;17.47;3.13;;;;;;;;;;5055167;28;20236;-72
2021/11/08 03:48:04;;;;;;;10.80;2.83;;;;;;;;;;5053427;28;20573;-72
2021/11/08 03:50:30;;;;;;;12.03;2.97;;;;;;;;;;5054620;28;20223;-72
2021/11/08 03:52:57;;;;;;;13.70;2.83;;;;;;;;;;5051123;28;20272;-72
2021/11/08 03:55:25;;;;;;;14.77;3.10;;;;;;;;;;5055283;28;20238;-72
2021/11/08 03:57:53;;;;;;;11.50;3.10;;;;;;;;;;5054587;28;20249;-72
2021/11/08 04:00:22;;;;;;;12.13;3.10;;;;;;;;;;5054943;28;20559;-72
2021/11/08 04:02:50;;;;;;;9.17;2.80;;;;;;;;;;5054429;28;20217;-72
2021/11/08 04:05:20;;;;;;;14.87;2.70;;;;;;;;;;5053895;28;20682;-72
2021/11/08 04:07:47;;;;;;;13.57;3.07;;;;;;;;;;5054147;28;20240;-72
2021/11/08 04:10:15;;;;;;;12.10;2.80;;;;;;;;;;5053558;28;20300;-72
2021/11/08 04:12:42;;;;;;;9.37;2.37;;;;;;;;;;5055317;28;20438;-72
2021/11/08 04:15:10;;;;;;;17.40;3.57;;;;;;;;;;5051359;28;20594;-72
2021/11/08 04:17:41;;;;;;;12.27;3.40;;;;;;;;;;5054985;28;20264;-72
2021/11/08 04:20:12;;;;;;;11.27;2.40;;;;;;;;;;5054404;28;20264;-72
2021/11/08 04:22:39;;;;;;;13.93;3.20;;;;;;;;;;5051974;28;20225;-72
2021/11/08 04:25:06;;;;;;;10.97;2.70;;;;;;;;;;5053822;28;20283;-72
2021/11/08 04:27:37;;;;;;;13.90;3.63;;;;;;;;;;5053251;28;20206;-72
2021/11/08 04:30:04;;;;;;;13.23;3.43;;;;;;;;;;5052305;28;20379;-72
2021/11/08 04:32:36;;;;;;;11.83;3.00;;;;;;;;;;5053286;28;20215;-72
2021/11/08 04:35:06;;;;;;;13.67;2.93;;;;;;;;;;5053045;28;20359;-72
2021/11/08 04:37:51;;;;;;;14.87;3.33;;;;;;;;;;5052964;28;20301;-72
2021/11/08 04:40:22;;;;;;;10.10;2.63;;;;;;;;;;5053302;28;20229;-72
2021/11/08 04:42:58;;;;;;;10.87;2.73;;;;;;;;;;5056260;28;20283;-72
2021/11/08 04:45:50;;;;;;;13.37;3.37;;;;;;;;;;5052046;28;20232;-72
2021/11/08 04:51:00;;;;;;;10.63;2.77;;;;;;;;;;5049664;28;20246;-72
2021/11/08 04:53:35;;;;;;;11.00;2.53;;;;;;;;;;5053762;28;20695;-72
2021/11/08 05:21:19;;;;;;;13.00;2.77;;;;;;;;;;5030012;28;20361;-73
2021/11/08 05:31:59;;;;;;;16.55;3.95;;;;;;;;;;5070281;28;20944;-77
2021/11/08 05:34:27;;;;;;;11.43;3.13;;;;;;;;;;5069941;28;20634;-77
2021/11/08 05:36:53;;;;;;;14.73;3.77;;;;;;;;;;5072435;28;20227;-77
2021/11/08 05:39:20;;;;;;;14.10;2.63;;;;;;;;;;5071360;28;20233;-77
2021/11/08 05:41:47;;;;;;;8.67;2.47;;;;;;;;;;5071022;28;20824;-77
2021/11/08 05:44:13;;;;;;;7.23;2.37;;;;;;;;;;5069642;28;20307;-77
2021/11/08 05:46:39;;;;;;;10.87;3.13;;;;;;;;;;5070217;28;20206;-77
2021/11/08 05:49:06;;;;;;;20.03;3.20;;;;;;;;;;5070090;28;20208;-77
2021/11/08 05:51:34;;;;;;;13.37;2.90;;;;;;;;;;5073180;28;20217;-77
2021/11/08 05:54:01;;;;;;;9.50;2.27;;;;;;;;;;5071261;28;20302;-77
2021/11/08 05:56:31;;;;;;;16.80;2.60;;;;;;;;;;5072240;28;20217;-77
2021/11/08 05:59:10;;;;;;;12.33;2.10;;;;;;;;;;5070526;28;20316;-77
2021/11/08 06:51:07;;;;;;;12.00;2.90;;;;;;;;;;5055898;28;20835;-77
2021/11/08 06:53:34;;;;;;;11.40;2.73;;;;;;;;;;5053990;28;20231;-77
2021/11/08 06:56:03;;;;;;;10.57;2.60;;;;;;;;;;5057051;28;20319;-77
2021/11/08 06:58:30;;;;;;;12.07;2.80;;;;;;;;;;5056317;28;20281;-77
2021/11/08 07:00:57;;;;;;;10.27;2.33;;;;;;;;;;5053248;28;21151;-76
2021/11/08 07:03:25;;;;;;;9.00;2.53;;;;;;;;;;5056206;28;20660;-79
2021/11/08 07:05:51;;;;;;;8.67;2.63;;;;;;;;;;5057792;28;20235;-76
2021/11/08 07:08:17;;;;;;;11.40;2.50;;;;;;;;;;5058828;28;20219;-78
2021/11/08 07:10:45;;;;;;;9.13;2.60;;;;;;;;;;5058398;28;20211;-79
2021/11/08 07:13:14;;;;;;;11.60;2.27;;;;;;;;;;5058174;28;20224;-78
2021/11/08 07:15:42;;;;;;;11.70;2.80;;;;;;;;;;5058356;28;20218;-79
2021/11/08 07:18:08;;;;;;;10.83;2.27;;;;;;;;;;5058423;28;20214;-77
2021/11/08 07:20:35;;;;;;;7.77;2.17;;;;;;;;;;5038578;28;20228;-77
2021/11/08 07:23:01;;;;;;;8.60;2.23;;;;;;;;;;5055968;28;20223;-77
2021/11/08 07:25:28;;;;;;;11.33;2.40;;;;;;;;;;5052492;28;20300;-77
2021/11/08 07:27:54;;;;;;;10.27;2.73;;;;;;;;;;5052911;28;20210;-77
2021/11/08 07:30:23;;;;;;;15.60;2.90;;;;;;;;;;5053786;28;20230;-77
2021/11/08 07:32:49;;;;;;;10.00;2.50;;;;;;;;;;5055265;28;20210;-77
2021/11/08 07:35:16;;;;;;;11.63;2.33;;;;;;;;;;5054889;28;20592;-77
2021/11/08 07:37:43;;;;;;;13.57;2.53;;;;;;;;;;5054153;28;20681;-77
2021/11/08 07:40:10;;;;;;;11.33;2.70;;;;;;;;;;5052997;28;20231;-77
2021/11/08 07:42:37;;;;;;;17.23;3.20;;;;;;;;;;5052631;28;20218;-77
2021/11/08 07:45:04;;;;;;;10.93;2.50;;;;;;;;;;5054840;28;20250;-77
2021/11/08 07:47:32;;;;;;;12.77;2.57;;;;;;;;;;5052379;28;20284;-77
2021/11/08 07:49:58;;;;;;;11.80;2.30;;;;;;;;;;5052061;28;20214;-77
2021/11/08 07:52:25;;;;;;;10.17;2.70;;;;;;;;;;5053755;28;20270;-77
2021/11/08 07:54:51;;;;;;;13.50;2.97;;;;;;;;;;5055178;28;20235;-77
2021/11/08 07:57:19;;;;;;;8.53;2.23;;;;;;;;;;5055460;28;20212;-77
2021/11/08 07:59:45;;;;;;;10.50;2.53;;;;;;;;;;5052778;28;20304;-77
2021/11/08 08:02:12;;;;;;;9.00;2.27;;;;;;;;;;5052893;28;20619;-77
2021/11/08 08:04:40;;;;;;;10.10;2.50;;;;;;;;;;5054714;28;20305;-77
2021/11/08 08:07:06;;;;;;;14.20;1.93;;;;;;;;;;5053136;28;20214;-77
2021/11/08 08:09:33;;;;;;;11.83;2.67;;;;;;;;;;5054435;28;20233;-77
2021/11/08 08:11:59;;;;;;;8.70;2.17;;;;;;;;;;5054718;28;20596;-77
2021/11/08 08:14:26;;;;;;;12.80;2.63;;;;;;;;;;5053172;28;20232;-77
2021/11/08 08:16:53;;;;;;;6.77;2.30;;;;;;;;;;5054554;28;20533;-77
2021/11/08 08:19:20;;;;;;;9.83;2.40;;;;;;;;;;5053895;28;20207;-77
2021/11/08 08:21:49;;;;;;;11.77;2.63;;;;;;;;;;5055099;28;20616;-77
2021/11/08 08:24:15;;;;;;;12.07;2.40;;;;;;;;;;5052646;28;20228;-77
2021/11/08 08:26:44;;;;;;;9.57;2.27;;;;;;;;;;5054449;28;20812;-77
2021/11/08 08:29:13;;;;;;;13.03;2.50;;;;;;;;;;5051976;28;20228;-77
2021/11/08 08:31:41;;;;;;;11.50;2.10;;;;;;;;;;5051450;28;20736;-77
2021/11/08 08:34:10;;;;;;;10.93;2.63;;;;;;;;;;5052326;28;20654;-77
2021/11/08 08:36:37;;;;;;;8.13;2.30;;;;;;;;;;5053429;28;20779;-78
2021/11/08 08:39:07;;;;;;;13.07;2.60;;;;;;;;;;5052531;28;20327;-77
2021/11/08 08:41:34;;;;;;;13.47;2.57;;;;;;;;;;5051823;28;20714;-77
2021/11/08 08:44:00;;;;;;;9.97;2.53;;;;;;;;;;5051086;28;20224;-77
2021/11/08 08:46:27;;;;;;;9.80;2.30;;;;;;;;;;5051930;28;20693;-77
2021/11/08 08:48:55;;;;;;;12.67;2.43;;;;;;;;;;5053676;28;20224;-77
2021/11/08 08:51:22;;;;;;;10.60;2.53;;;;;;;;;;5053015;28;20539;-77
2021/11/08 08:53:50;;;;;;;17.23;3.20;;;;;;;;;;5052920;28;20246;-77
2021/11/08 08:56:20;;;;;;;10.43;2.73;;;;;;;;;;5052720;28;20298;-77
2021/11/08 08:58:46;;;;;;;13.50;2.63;;;;;;;;;;5052019;28;20229;-77
2021/11/08 09:01:13;;;;;;;15.57;2.57;;;;;;;;;;5051843;28;20249;-77
2021/11/08 09:03:39;;;;;;;13.23;2.80;;;;;;;;;;5053935;28;20261;-77
2021/11/08 09:06:06;;;;;;;9.13;2.60;;;;;;;;;;5051546;28;20268;-77
2021/11/08 09:08:35;;;;;;;8.97;2.57;;;;;;;;;;5052788;28;20735;-77
2021/11/08 09:11:01;;;;;;;8.33;2.63;;;;;;;;;;5053253;28;20655;-77
2021/11/08 09:13:29;;;;;;;12.97;3.17;;;;;;;;;;5052581;28;20228;-77
2021/11/08 09:15:56;;;;;;;14.13;3.40;;;;;;;;;;5053217;28;20212;-77
2021/11/08 09:18:22;;;;;;;10.03;2.60;;;;;;;;;;5052380;28;20217;-77
2021/11/08 09:20:50;;;;;;;11.87;2.97;;;;;;;;;;5051881;28;20236;-77
2021/11/08 09:23:17;;;;;;;13.03;3.00;;;;;;;;;;5051808;28;20590;-77
2021/11/08 09:25:43;;;;;;;10.70;2.60;;;;;;;;;;5053700;28;20222;-77
2021/11/08 09:28:10;;;;;;;13.10;2.90;;;;;;;;;;5053031;28;20209;-77
2021/11/08 09:30:41;;;;;;;10.63;2.63;;;;;;;;;;5053633;28;20236;-77
2021/11/08 09:33:09;;;;;;;11.90;2.80;;;;;;;;;;5052903;28;20261;-77
2021/11/08 09:35:38;;;;;;;10.67;2.83;;;;;;;;;;5053782;28;20695;-77
2021/11/08 09:38:06;;;;;;;18.30;3.60;;;;;;;;;;5052444;28;20206;-77
2021/11/08 09:40:34;;;;;;;13.50;3.30;;;;;;;;;;5053025;28;20206;-77
2021/11/08 09:43:01;;;;;;;10.80;2.70;;;;;;;;;;5052199;28;20263;-77
2021/11/08 09:45:28;;;;;;;14.03;3.43;;;;;;;;;;5051194;28;20221;-77
2021/11/08 09:47:56;;;;;;;13.50;3.10;;;;;;;;;;5054889;28;20217;-77
2021/11/08 09:50:26;;;;;;;15.43;4.03;;;;;;;;;;5058103;28;20213;-77
2021/11/08 09:52:53;;;;;;;16.07;3.50;;;;;;;;;;5057472;28;20312;-77
2021/11/08 09:55:22;;;;;;;16.57;3.00;;;;;;;;;;5054937;28;20714;-79
2021/11/08 09:57:52;;;;;;;11.27;3.03;;;;;;;;;;5046374;28;20232;-77
2021/11/08 10:00:23;;;;;;;9.33;2.60;;;;;;;;;;5054856;28;20241;-77
2021/11/08 10:02:53;;;;;;;12.83;2.90;;;;;;;;;;5058797;28;20229;-77
2021/11/08 10:05:24;;;;;;;11.10;2.90;;;;;;;;;;5056523;28;20307;-77
2021/11/08 10:07:51;;;;;;;14.97;3.40;;;;;;;;;;5057254;28;21187;-77
2021/11/08 10:10:18;;;;;;;11.83;3.27;;;;;;;;;;5056183;28;20227;-77
2021/11/08 10:12:49;;;;;;;14.03;2.77;;;;;;;;;;5056661;28;20220;-77
2021/11/08 10:15:16;;;;;;;14.93;2.63;;;;;;;;;;5054850;28;20706;-77
2021/11/08 10:17:43;;;;;;;10.67;2.73;;;;;;;;;;5055960;28;20222;-77
2021/11/08 10:20:10;;;;;;;9.77;2.40;;;;;;;;;;5054607;28;20213;-77
2021/11/08 10:22:38;;;;;;;11.30;2.40;;;;;;;;;;5056616;28;20237;-77
2021/11/08 10:25:06;;;;;;;17.00;3.10;;;;;;;;;;5056959;28;20422;-77
2021/11/08 10:27:43;;;;;;;33.27;4.73;;;;;;;;;;5055205;28;20212;-77
2021/11/08 10:30:21;;;;;;;15.90;2.97;;;;;;;;;;5054765;28;20234;-77
2021/11/08 10:32:48;;;;;;;14.03;3.30;;;;;;;;;;5056626;28;20267;-77
2021/11/08 10:35:15;;;;;;;15.27;2.97;;;;;;;;;;5056963;28;20258;-77
2021/11/08 10:37:43;;;;;;;14.47;2.80;;;;;;;;;;5056122;28;20229;-77
2021/11/08 10:40:17;;;;;;;19.77;3.33;;;;;;;;;;5056319;28;20240;-77
2021/11/08 10:42:55;;;;;;;12.53;3.40;;;;;;;;;;5056692;28;20273;-77
2021/11/08 10:45:23;;;;;;;12.67;2.60;;;;;;;;;;5054545;28;20224;-77
2021/11/08 10:47:58;;;;;;;11.10;2.53;;;;;;;;;;5056081;28;20212;-77
2021/11/08 10:50:27;;;;;;;10.83;2.60;;;;;;;;;;5055430;28;20217;-77
2021/11/08 10:53:01;;;;;;;11.43;2.43;;;;;;;;;;5054726;28;20269;-77
2021/11/08 10:55:30;;;;;;;8.63;2.50;;;;;;;;;;5054039;28;20252;-77
2021/11/08 10:58:10;;;;;;;13.00;2.50;;;;;;;;;;5056217;28;20270;-76
2021/11/08 11:00:48;;;;;;;11.33;2.47;;;;;;;;;;5054574;28;20227;-77
2021/11/08 11:03:15;;;;;;;8.83;1.97;;;;;;;;;;5058230;28;20213;-77
2021/11/08 11:05:43;;;;;;;13.73;2.37;;;;;;;;;;5057423;28;20315;-78
2021/11/08 11:08:14;;;;;;;9.07;2.30;;;;;;;;;;5055473;28;20209;-77
2021/11/08 11:10:43;;;;;;;10.43;2.60;;;;;;;;;;5057392;28;20252;-77
2021/11/08 11:13:17;;;;;;;9.33;1.67;;;;;;;;;;5055794;28;20220;-77
2021/11/08 11:15:44;;;;;;;8.63;1.93;;;;;;;;;;5072867;28;20235;-77
2021/11/08 11:18:12;;;;;;;10.20;2.23;;;;;;;;;;5053033;28;20624;-78
2021/11/08 11:20:42;;;;;;;9.07;2.00;;;;;;;;;;5058224;28;20229;-77
2021/11/08 11:23:15;;;;;;;9.13;2.43;;;;;;;;;;5055534;28;20272;-77
2021/11/08 11:25:43;;;;;;;11.03;2.00;;;;;;;;;;5055798;28;20292;-77
2021/11/08 11:28:13;;;;;;;10.30;1.80;;;;;;;;;;5055805;28;20217;-77
2021/11/08 11:30:42;;;;;;;8.20;2.00;;;;;;;;;;5056388;28;20803;-77
2021/11/08 11:33:10;;;;;;;4.60;1.67;;;;;;;;;;5056524;28;20219;-77
2021/11/08 11:35:40;;;;;;;10.27;2.07;;;;;;;;;;5056435;28;20675;-77
2021/11/08 11:38:09;;;;;;;8.43;1.63;;;;;;;;;;5055180;28;20300;-77
2021/11/08 11:40:40;;;;;;;7.07;1.70;;;;;;;;;;5053483;28;20308;-77
2021/11/08 11:43:09;;;;;;;7.93;1.50;;;;;;;;;;5056955;28;20306;-77
2021/11/08 11:45:45;;;;;;;9.10;1.43;;;;;;;;;;5052468;28;20248;-77
2021/11/08 11:48:12;;;;;;;11.57;1.63;;;;;;;;;;5055417;28;20604;-77
2021/11/08 11:50:39;;;;;;;7.53;1.40;;;;;;;;;;5056929;28;20237;-77
2021/11/08 11:53:06;;;;;;;6.37;1.67;;;;;;;;;;5057699;28;20217;-77
2021/11/08 11:55:35;;;;;;;6.80;1.30;;;;;;;;;;5053467;28;20684;-77
2021/11/08 11:58:03;;;;;;;8.07;1.77;;;;;;;;;;5055486;28;20234;-77
2021/11/08 12:00:32;;;;;;;11.67;2.37;;;;;;;;;;5054559;28;20252;-77
2021/11/08 12:02:59;;;;;;;11.17;1.63;;;;;;;;;;5055207;28;20568;-77
2021/11/08 12:05:27;;;;;;;10.80;2.20;;;;;;;;;;5052200;28;20237;-77
2021/11/08 12:07:55;;;;;;;6.10;2.07;;;;;;;;;;5052438;28;20324;-77
2021/11/08 12:10:22;;;;;;;8.20;1.50;;;;;;;;;;5053054;28;20216;-77
2021/11/08 12:12:49;;;;;;;6.03;1.57;;;;;;;;;;5053649;28;20229;-77
2021/11/08 12:15:27;;;;;;;7.17;1.80;;;;;;;;;;5055348;28;20717;-77
2021/11/08 12:17:54;;;;;;;7.67;1.67;;;;;;;;;;5054326;28;20209;-77
2021/11/08 12:20:25;;;;;;;12.47;1.63;;;;;;;;;;5052600;28;20204;-76
2021/11/08 12:22:52;;;;;;;9.53;1.60;;;;;;;;;;5054619;28;20228;-79
2021/11/08 12:25:21;;;;;;;9.40;1.60;;;;;;;;;;5057512;28;20560;-79
2021/11/08 12:27:49;;;;;;;5.70;1.50;;;;;;;;;;5057908;28;20272;-79
2021/11/08 12:30:20;;;;;;;5.60;1.20;;;;;;;;;;5056372;28;20237;-79
2021/11/08 12:32:48;;;;;;;7.00;1.50;;;;;;;;;;5058464;28;20736;-79
2021/11/08 12:35:21;;;;;;;4.97;1.27;;;;;;;;;;5056025;28;20220;-77
2021/11/08 12:37:50;;;;;;;6.37;1.30;;;;;;;;;;5054613;28;20241;-77
2021/11/08 12:40:19;;;;;;;6.40;1.23;;;;;;;;;;5052680;28;20252;-79
2021/11/08 12:42:49;;;;;;;6.07;1.30;;;;;;;;;;5058422;28;20244;-79
2021/11/08 12:45:23;;;;;;;3.57;1.10;;;;;;;;;;5056551;28;20231;-79
2021/11/08 12:48:00;;;;;;;3.57;0.97;;;;;;;;;;5060722;28;20547;-79
2021/11/08 12:50:33;;;;;;;4.80;1.47;;;;;;;;;;5055551;28;20213;-79
2021/11/08 12:53:00;;;;;;;10.70;1.60;;;;;;;;;;5058112;28;20208;-79
2021/11/08 12:55:28;;;;;;;13.00;1.77;;;;;;;;;;5054537;28;20221;-79
2021/11/08 12:57:56;;;;;;;7.07;1.27;;;;;;;;;;5055994;28;20564;-77
2021/11/08 13:00:27;;;;;;;7.43;1.70;;;;;;;;;;5054304;28;20242;-79
2021/11/08 13:02:57;;;;;;;5.60;1.30;;;;;;;;;;5056941;28;20234;-79
2021/11/08 13:05:29;;;;;;;5.83;1.60;;;;;;;;;;5056077;28;20272;-79
2021/11/08 13:07:57;;;;;;;5.23;1.37;;;;;;;;;;5054864;28;20290;-77
2021/11/08 13:10:27;;;;;;;6.93;1.10;;;;;;;;;;5053751;28;20284;-76
2021/11/08 13:12:54;;;;;;;6.33;1.30;;;;;;;;;;5053006;28;20680;-77
2021/11/08 13:15:23;;;;;;;7.67;1.97;;;;;;;;;;5053666;28;20587;-77
2021/11/08 13:17:53;;;;;;;5.83;1.37;;;;;;;;;;5052581;28;20227;-77
2021/11/08 13:20:23;;;;;;;7.10;1.07;;;;;;;;;;5051319;28;20220;-77
2021/11/08 13:22:52;;;;;;;7.20;1.50;;;;;;;;;;5055795;28;20245;-77
2021/11/08 13:25:22;;;;;;;8.63;1.70;;;;;;;;;;5057779;28;20204;-76
2021/11/08 13:27:50;;;;;;;10.33;2.63;;;;;;;;;;5057790;28;20209;-76
2021/11/08 13:30:22;;;;;;;4.50;1.60;;;;;;;;;;5056501;28;20224;-77
2021/11/08 13:32:53;;;;;;;8.93;1.93;;;;;;;;;;5055684;28;20289;-76
2021/11/08 13:35:25;;;;;;;6.00;1.70;;;;;;;;;;5054691;28;20213;-76
2021/11/08 13:38:03;;;;;;;5.87;1.40;;;;;;;;;;5058409;28;20225;-76
2021/11/08 13:40:31;;;;;;;11.67;2.40;;;;;;;;;;5055614;28;20221;-78
2021/11/08 13:43:06;;;;;;;6.23;1.83;;;;;;;;;;5060154;28;20240;-77
2021/11/08 13:45:47;;;;;;;7.57;1.87;;;;;;;;;;5064036;28;20240;-78
2021/11/08 13:48:27;;;;;;;7.33;1.90;;;;;;;;;;5061645;28;20696;-76
2021/11/08 13:50:55;;;;;;;10.23;2.37;;;;;;;;;;5056252;28;20237;-76
2021/11/08 13:53:26;;;;;;;8.17;1.73;;;;;;;;;;5056025;28;20275;-76
2021/11/08 13:55:58;;;;;;;8.60;1.97;;;;;;;;;;5057193;28;20317;-76
2021/11/08 13:58:25;;;;;;;13.20;2.53;;;;;;;;;;5057819;28;20519;-76
2021/11/08 14:00:52;;;;;;;8.37;1.80;;;;;;;;;;5056869;28;20255;-77
2021/11/08 14:03:19;;;;;;;10.50;1.90;;;;;;;;;;5055308;28;20225;-76
2021/11/08 14:05:48;;;;;;;9.60;1.97;;;;;;;;;;5053978;28;20359;-77
2021/11/08 14:08:20;;;;;;;10.47;2.30;;;;;;;;;;5058409;28;20214;-76
2021/11/08 14:10:51;;;;;;;9.60;1.73;;;;;;;;;;5058469;28;20212;-76
2021/11/08 14:13:18;;;;;;;8.93;2.00;;;;;;;;;;5054994;28;21121;-77
2021/11/08 14:15:44;;;;;;;7.83;2.23;;;;;;;;;;5057782;28;20656;-77
2021/11/08 14:18:19;;;;;;;10.63;1.60;;;;;;;;;;5054914;28;20232;-77
2021/11/08 14:20:47;;;;;;;6.43;2.27;;;;;;;;;;5053855;28;20295;-77
2021/11/08 14:23:14;;;;;;;10.73;2.70;;;;;;;;;;5054286;28;20233;-77
2021/11/08 14:25:41;;;;;;;11.83;2.40;;;;;;;;;;5058078;28;20223;-77
2021/11/08 14:28:07;;;;;;;10.00;2.03;;;;;;;;;;5055089;28;20206;-77
2021/11/08 14:30:35;;;;;;;9.70;2.20;;;;;;;;;;5055845;28;20760;-77
2021/11/08 14:33:03;;;;;;;10.63;2.90;;;;;;;;;;5055575;28;20678;-77
2021/11/08 14:35:31;;;;;;;8.60;1.97;;;;;;;;;;5053447;28;20219;-77
2021/11/08 14:38:02;;;;;;;7.57;1.60;;;;;;;;;;5054094;28;20229;-77
2021/11/08 14:40:31;;;;;;;9.20;1.97;;;;;;;;;;5054145;28;20258;-77
2021/11/08 14:42:57;;;;;;;8.17;2.43;;;;;;;;;;5057474;28;20231;-77
2021/11/08 14:45:27;;;;;;;8.60;2.10;;;;;;;;;;5054601;28;20231;-78
2021/11/08 14:48:02;;;;;;;11.07;2.30;;;;;;;;;;5057600;28;21034;-78
2021/11/08 14:50:30;;;;;;;4.50;1.70;;;;;;;;;;5057488;28;20228;-78
2021/11/08 14:53:00;;;;;;;8.97;2.07;;;;;;;;;;5056408;28;20602;-78
2021/11/08 14:55:28;;;;;;;7.43;1.50;;;;;;;;;;5057535;28;20200;-78
2021/11/08 14:57:57;;;;;;;7.20;1.40;;;;;;;;;;5056854;28;20219;-78
2021/11/08 15:00:26;;;;;;;8.37;1.90;;;;;;;;;;5058143;28;20240;-77
2021/11/08 15:02:54;;;;;;;12.57;2.57;;;;;;;;;;5055618;28;20635;-77
2021/11/08 15:05:23;;;;;;;6.27;1.43;;;;;;;;;;5058019;28;20221;-78
2021/11/08 15:07:58;;;;;;;7.40;1.53;;;;;;;;;;5056167;28;20385;-77
2021/11/08 15:10:28;;;;;;;9.87;1.73;;;;;;;;;;5054437;28;20208;-77
2021/11/08 15:12:59;;;;;;;5.40;1.47;;;;;;;;;;5054459;28;20217;-77
2021/11/08 15:15:29;;;;;;;7.63;1.67;;;;;;;;;;5056686;28;20239;-77
2021/11/08 15:17:59;;;;;;;6.77;1.50;;;;;;;;;;5057309;28;20232;-77
2021/11/08 15:20:28;;;;;;;13.50;1.90;;;;;;;;;;5056668;28;20518;-77
2021/11/08 15:22:57;;;;;;;10.10;1.60;;;;;;;;;;5060140;28;20239;-77
2021/11/08 15:25:29;;;;;;;3.67;1.60;;;;;;;;;;5055587;28;20207;-77
2021/11/08 15:28:13;;;;;;;4.50;1.27;;;;;;;;;;5057426;28;20413;-77
2021/11/08 15:30:44;;;;;;;8.33;1.30;;;;;;;;;;5056210;28;20580;-77
2021/11/08 15:33:15;;;;;;;6.80;1.67;;;;;;;;;;5055481;28;20212;-77
2021/11/08 15:35:51;;;;;;;9.43;1.70;;;;;;;;;;5055838;28;20209;-77
2021/11/08 15:38:20;;;;;;;9.93;2.97;;;;;;;;;;5055510;28;20303;-77
2021/11/08 15:40:50;;;;;;;10.63;2.67;;;;;;;;;;5056617;28;20547;-77
2021/11/08 15:43:17;;;;;;;8.27;1.93;;;;;;;;;;5054084;28;20248;-77
2021/11/08 15:45:46;;;;;;;8.73;2.10;;;;;;;;;;5054964;28;20229;-76
2021/11/08 15:48:13;;;;;;;10.07;3.27;;;;;;;;;;5054969;28;20680;-76
2021/11/08 15:50:40;;;;;;;10.27;2.60;;;;;;;;;;5051327;28;20953;-77
2021/11/08 15:53:07;;;;;;;11.70;3.17;;;;;;;;;;5056290;28;20281;-77
2021/11/08 15:55:34;;;;;;;8.90;2.37;;;;;;;;;;5054667;28;20212;-77
2021/11/08 15:58:02;;;;;;;9.57;2.67;;;;;;;;;;5054827;28;20213;-77
2021/11/08 16:00:29;;;;;;;8.60;2.70;;;;;;;;;;5054279;28;20418;-77
2021/11/08 16:02:55;;;;;;;12.17;4.33;;;;;;;;;;5053446;28;20306;-77
2021/11/08 16:05:22;;;;;;;9.00;3.97;;;;;;;;;;5054098;28;20226;-77
2021/11/08 16:07:48;;;;;;;10.77;2.83;;;;;;;;;;5055087;28;20232;-77
2021/11/08 16:10:14;;;;;;;10.03;2.50;;;;;;;;;;5053238;28;20225;-77